createdAt,value
2019-01-24T00:01:19.350Z,30.83
2019-01-24T00:03:48.827Z,29.07
2019-01-24T00:06:18.390Z,29.13
2019-01-24T00:08:47.870Z,28.60
2019-01-24T00:11:17.345Z,28.70
2019-01-24T00:13:46.845Z,29.63
2019-01-24T00:16:16.363Z,28.43
2019-01-24T00:18:45.851Z,30.07
2019-01-24T00:21:15.371Z,28.90
2019-01-24T00:23:44.899Z,29.10
2019-01-24T00:26:14.364Z,29.93
2019-01-24T00:28:43.881Z,30.80
2019-01-24T00:31:14.045Z,29.03
2019-01-24T00:33:43.521Z,27.97
2019-01-24T00:36:13.000Z,29.57
2019-01-24T00:38:42.547Z,28.90
2019-01-24T00:41:12.001Z,31.53
2019-01-24T00:43:41.502Z,29.07
2019-01-24T00:46:10.986Z,29.17
2019-01-24T00:48:40.504Z,28.50
2019-01-24T00:51:09.973Z,27.33
2019-01-24T00:53:39.465Z,28.77
2019-01-24T00:56:09.005Z,29.27
2019-01-24T00:58:38.489Z,29.67
2019-01-24T01:01:08.071Z,29.47
2019-01-24T01:03:37.577Z,29.87
2019-01-24T01:06:07.198Z,32.37
2019-01-24T01:08:36.708Z,29.17
2019-01-24T01:11:06.286Z,31.53
2019-01-24T01:13:35.753Z,30.80
2019-01-24T01:16:05.477Z,30.90
2019-01-24T01:18:34.969Z,29.63
2019-01-24T01:21:05.547Z,29.80
2019-01-24T01:23:35.037Z,29.20
2019-01-24T01:26:04.625Z,30.97
2019-01-24T01:28:34.136Z,30.53
2019-01-24T01:31:03.789Z,32.53
2019-01-24T01:33:33.430Z,29.87
2019-01-24T01:36:02.911Z,30.20
2019-01-24T01:38:32.397Z,33.03
2019-01-24T01:41:02.016Z,30.53
2019-01-24T01:43:31.533Z,31.20
2019-01-24T01:46:01.009Z,30.23
2019-01-24T01:48:30.533Z,32.03
2019-01-24T01:51:00.006Z,28.63
2019-01-24T01:53:29.477Z,30.60
2019-01-24T01:55:58.983Z,32.17
2019-01-24T01:58:28.469Z,32.40
2019-01-24T02:00:57.969Z,35.30
2019-01-24T02:03:27.452Z,31.10
2019-01-24T02:05:56.960Z,33.27
2019-01-24T02:08:26.436Z,32.77
2019-01-24T02:10:55.910Z,33.63
2019-01-24T02:13:25.546Z,33.60
2019-01-24T02:15:55.365Z,35.57
2019-01-24T02:18:24.817Z,34.07
2019-01-24T02:20:54.349Z,34.83
2019-01-24T02:23:23.854Z,36.33
2019-01-24T02:25:53.364Z,33.13
2019-01-24T02:28:22.831Z,35.17
2019-01-24T02:30:52.352Z,34.17
2019-01-24T02:33:21.904Z,35.27
2019-01-24T02:35:51.344Z,36.10
2019-01-24T02:38:20.817Z,35.33
2019-01-24T02:40:50.293Z,35.63
2019-01-24T02:43:19.793Z,35.47
2019-01-24T02:45:49.329Z,36.03
2019-01-24T02:48:18.796Z,37.03
2019-01-24T02:50:48.364Z,35.27
2019-01-24T02:53:19.299Z,38.13
2019-01-24T02:55:48.789Z,38.67
2019-01-24T02:58:18.314Z,36.67
2019-01-24T03:00:47.792Z,35.10
2019-01-24T03:03:17.271Z,34.63
2019-01-24T03:08:21.781Z,35.07
2019-01-24T03:10:51.266Z,37.90
2019-01-24T03:13:20.777Z,37.80
2019-01-24T03:15:50.556Z,35.10
2019-01-24T03:18:20.082Z,37.43
2019-01-24T03:20:49.611Z,36.03
2019-01-24T03:26:37.473Z,36.80
2019-01-24T03:29:06.940Z,35.90
2019-01-24T03:31:55.470Z,35.90
2019-01-24T03:34:44.019Z,36.83
2019-01-24T03:37:13.489Z,34.97
2019-01-24T03:40:02.062Z,36.00
2019-01-24T03:42:50.592Z,37.33
2019-01-24T03:45:39.188Z,35.47
2019-01-24T03:48:27.737Z,35.57
2019-01-24T03:50:57.239Z,35.40
2019-01-24T03:53:38.385Z,34.63
2019-01-24T03:56:19.142Z,35.80
2019-01-24T03:58:48.850Z,35.07
2019-01-24T04:01:37.379Z,36.53
2019-01-24T04:04:10.028Z,36.73
2019-01-24T04:06:39.969Z,36.70
2019-01-24T04:09:09.947Z,36.30
2019-01-24T04:11:58.486Z,38.97
2019-01-24T04:14:27.963Z,36.77
2019-01-24T04:16:57.492Z,36.97
2019-01-24T04:25:48.635Z,37.47
2019-01-24T04:28:05.723Z,36.63
2019-01-24T04:30:54.274Z,38.03
2019-01-24T04:33:42.794Z,36.93
2019-01-24T04:36:31.353Z,36.40
2019-01-24T04:39:00.832Z,38.87
2019-01-24T04:41:49.378Z,36.27
2019-01-24T04:44:37.902Z,37.03
2019-01-24T04:47:07.431Z,37.87
2019-01-24T04:49:55.960Z,37.27
2019-01-24T04:52:44.562Z,38.70
2019-01-24T04:55:16.062Z,38.30
2019-01-24T04:57:45.502Z,38.03
2019-01-24T05:00:27.212Z,39.03
2019-01-24T05:02:56.740Z,38.50
2019-01-24T05:05:27.921Z,39.23
2019-01-24T05:07:57.385Z,38.47
2019-01-24T05:10:26.908Z,41.70
2019-01-24T05:12:56.382Z,43.13
2019-01-24T05:15:25.896Z,42.27
2019-01-24T05:17:55.385Z,41.47
2019-01-24T05:20:24.886Z,39.33
2019-01-24T05:22:54.365Z,38.87
2019-01-24T05:25:23.888Z,39.63
2019-01-24T05:27:53.365Z,42.10
2019-01-24T05:30:25.048Z,38.23
2019-01-24T05:32:55.400Z,41.87
2019-01-24T05:35:24.987Z,39.80
2019-01-24T05:37:54.508Z,38.27
2019-01-24T05:40:23.992Z,40.73
2019-01-24T05:42:53.522Z,42.57
2019-01-24T05:45:22.996Z,39.43
2019-01-24T05:47:52.490Z,39.97
2019-01-24T05:50:21.991Z,47.33
2019-01-24T05:52:51.501Z,58.40
2019-01-24T05:55:21.015Z,57.10
2019-01-24T05:57:50.494Z,44.37
2019-01-24T06:00:35.110Z,40.30
2019-01-24T06:03:04.629Z,41.97
2019-01-24T06:05:34.101Z,39.60
2019-01-24T06:08:03.604Z,42.53
2019-01-24T06:10:33.115Z,44.73
2019-01-24T06:13:08.352Z,41.47
2019-01-24T06:15:37.853Z,44.47
2019-01-24T06:18:07.552Z,43.13
2019-01-24T06:20:37.042Z,39.47
2019-01-24T06:23:06.589Z,41.80
2019-01-24T06:25:36.073Z,41.47
2019-01-24T06:28:05.885Z,41.40
2019-01-24T06:30:35.418Z,42.30
2019-01-24T06:33:05.144Z,43.93
2019-01-24T06:35:34.633Z,39.47
2019-01-24T06:38:04.237Z,40.30
2019-01-24T06:40:33.921Z,40.63
2019-01-24T06:43:03.441Z,42.20
2019-01-24T06:45:33.031Z,39.43
2019-01-24T06:48:02.573Z,38.10
2019-01-24T06:50:32.045Z,40.53
2019-01-24T06:53:01.573Z,43.17
2019-01-24T06:55:31.045Z,44.20
2019-01-24T06:58:00.582Z,40.77
2019-01-24T07:00:30.078Z,40.50
2019-01-24T07:02:59.596Z,41.63
2019-01-24T07:05:29.105Z,41.13
2019-01-24T07:07:58.632Z,41.47
2019-01-24T07:10:28.221Z,43.03
2019-01-24T07:12:57.711Z,41.37
2019-01-24T07:15:27.290Z,42.30
2019-01-24T07:17:56.802Z,38.47
2019-01-24T07:20:26.349Z,43.00
2019-01-24T07:22:55.876Z,44.33
2019-01-24T07:25:27.371Z,42.00
2019-01-24T07:27:56.893Z,44.60
2019-01-24T07:30:26.381Z,43.53
2019-01-24T07:32:55.878Z,42.00
2019-01-24T07:35:25.501Z,41.77
2019-01-24T07:37:54.977Z,42.47
2019-01-24T07:40:24.493Z,40.70
2019-01-24T07:42:53.981Z,39.93
2019-01-24T07:45:29.264Z,43.67
2019-01-24T07:47:58.800Z,42.97
2019-01-24T07:50:28.481Z,41.73
2019-01-24T07:52:58.010Z,41.00
2019-01-24T07:55:27.504Z,42.50
2019-01-24T07:57:57.020Z,41.63
2019-01-24T08:00:27.209Z,39.33
2019-01-24T08:02:56.749Z,41.33
2019-01-24T08:05:26.708Z,39.60
2019-01-24T08:07:56.352Z,38.47
2019-01-24T08:10:25.943Z,42.30
2019-01-24T08:12:55.452Z,39.67
2019-01-24T08:15:25.093Z,39.87
2019-01-24T08:17:54.624Z,39.07
2019-01-24T08:20:26.008Z,37.83
2019-01-24T08:22:55.489Z,40.43
2019-01-24T08:25:25.093Z,39.73
2019-01-24T08:27:54.597Z,39.53
2019-01-24T08:30:26.218Z,39.13
2019-01-24T08:35:31.160Z,39.13
2019-01-24T08:38:00.668Z,39.33
2019-01-24T08:40:30.270Z,39.77
2019-01-24T08:42:59.774Z,40.07
2019-01-24T08:45:29.280Z,39.50
2019-01-24T08:48:03.698Z,40.57
2019-01-24T08:50:33.188Z,39.70
2019-01-24T08:53:02.685Z,39.33
2019-01-24T08:55:36.922Z,37.83
2019-01-24T08:58:06.995Z,37.50
2019-01-24T09:00:36.488Z,40.13
2019-01-24T09:03:06.420Z,37.47
2019-01-24T09:05:35.975Z,40.53
2019-01-24T09:08:06.040Z,39.87
2019-01-24T09:10:37.612Z,39.03
2019-01-24T09:13:08.065Z,37.63
2019-01-24T09:15:38.245Z,36.67
2019-01-24T09:18:08.811Z,38.40
2019-01-24T09:20:38.609Z,37.17
2019-01-24T09:23:08.620Z,37.97
2019-01-24T09:25:38.416Z,36.40
2019-01-24T09:28:14.635Z,34.80
2019-01-24T09:30:39.054Z,38.00
2019-01-24T09:33:08.551Z,36.53
2019-01-24T09:35:39.195Z,36.33
2019-01-24T09:38:08.773Z,35.60
2019-01-24T09:40:38.273Z,33.93
2019-01-24T09:43:07.757Z,38.10
2019-01-24T09:45:37.309Z,36.73
2019-01-24T09:48:07.911Z,35.67
2019-01-24T09:50:37.405Z,35.23
2019-01-24T09:53:06.893Z,35.67
2019-01-24T09:55:36.368Z,37.73
2019-01-24T09:58:06.082Z,35.60
2019-01-24T10:00:37.112Z,34.47
2019-01-24T10:03:07.438Z,35.67
2019-01-24T10:05:37.040Z,38.20
2019-01-24T10:08:07.437Z,36.57
2019-01-24T10:10:36.962Z,38.70
2019-01-24T10:13:06.883Z,34.47
2019-01-24T10:15:36.401Z,36.17
2019-01-24T10:18:06.001Z,36.23
2019-01-24T10:20:35.505Z,36.07
2019-01-24T10:23:06.312Z,35.23
2019-01-24T10:25:38.030Z,34.13
2019-01-24T10:28:08.044Z,34.43
2019-01-24T10:30:42.688Z,35.00
2019-01-24T10:33:08.777Z,36.13
2019-01-24T10:35:38.252Z,36.40
2019-01-24T10:38:07.769Z,36.77
2019-01-24T10:40:37.255Z,35.60
2019-01-24T10:43:06.748Z,35.10
2019-01-24T10:45:36.257Z,36.10
2019-01-24T10:48:06.186Z,36.63
2019-01-24T10:50:35.706Z,37.43
2019-01-24T10:53:05.341Z,36.87
2019-01-24T10:55:34.852Z,36.10
2019-01-24T10:58:04.968Z,37.37
2019-01-24T11:00:39.917Z,37.03
2019-01-24T11:03:28.418Z,34.37
2019-01-24T11:05:57.929Z,36.43
2019-01-24T11:08:46.435Z,34.57
2019-01-24T11:11:34.979Z,33.83
2019-01-24T11:14:23.588Z,35.37
2019-01-24T11:16:53.099Z,34.10
2019-01-24T11:19:41.628Z,33.97
2019-01-24T11:22:22.881Z,34.93
2019-01-24T11:25:05.193Z,34.90
2019-01-24T11:27:34.695Z,32.53
2019-01-24T11:30:44.357Z,39.57
2019-01-24T11:33:32.894Z,33.73
2019-01-24T11:36:02.373Z,34.03
2019-01-24T11:38:50.932Z,36.33
2019-01-24T11:41:39.444Z,33.23
2019-01-24T11:44:09.004Z,31.93
2019-01-24T11:46:38.477Z,35.60
2019-01-24T11:49:27.056Z,34.90
2019-01-24T11:51:56.532Z,32.87
2019-01-24T11:54:45.077Z,34.20
2019-01-24T11:57:14.533Z,34.30
2019-01-24T11:59:44.033Z,35.13
2019-01-24T12:02:13.544Z,34.13
2019-01-24T12:04:43.056Z,35.23
2019-01-24T12:07:12.628Z,33.57
2019-01-24T12:09:42.132Z,46.63
2019-01-24T12:12:11.633Z,33.50
2019-01-24T12:14:41.097Z,34.57
2019-01-24T12:17:10.818Z,36.17
2019-01-24T12:19:40.285Z,51.30
2019-01-24T12:22:09.830Z,81.80
2019-01-24T12:24:39.365Z,60.23
2019-01-24T12:27:08.860Z,38.00
2019-01-24T12:29:38.365Z,34.63
2019-01-24T12:32:07.845Z,35.10
2019-01-24T12:34:37.344Z,34.10
2019-01-24T12:37:11.272Z,72.67
2019-01-24T12:39:38.032Z,44.53
2019-01-24T12:42:07.529Z,36.07
2019-01-24T12:44:37.001Z,32.10
2019-01-24T12:47:06.504Z,34.90
2019-01-24T12:49:35.973Z,33.50
2019-01-24T12:52:05.600Z,30.87
2019-01-24T12:54:35.085Z,38.27
2019-01-24T12:57:04.796Z,49.77
2019-01-24T12:59:34.264Z,37.63
2019-01-24T13:02:03.979Z,37.27
2019-01-24T13:04:33.435Z,31.47
2019-01-24T13:07:02.949Z,33.90
2019-01-24T13:09:32.402Z,34.60
2019-01-24T13:12:01.891Z,33.07
2019-01-24T13:14:31.405Z,32.87
2019-01-24T13:17:00.878Z,31.40
2019-01-24T13:19:30.373Z,33.27
2019-01-24T13:21:59.940Z,32.87
2019-01-24T13:24:29.447Z,32.93
2019-01-24T13:26:58.916Z,34.53
2019-01-24T13:29:28.405Z,31.03
2019-01-24T13:31:57.913Z,31.23
2019-01-24T13:34:27.381Z,31.90
2019-01-24T13:36:56.901Z,30.63
2019-01-24T13:39:26.364Z,32.03
2019-01-24T13:41:55.880Z,34.83
2019-01-24T13:44:25.389Z,33.70
2019-01-24T13:46:54.859Z,35.90
2019-01-24T13:49:24.357Z,33.13
2019-01-24T13:51:53.841Z,32.43
2019-01-24T13:54:23.501Z,36.33
2019-01-24T13:56:52.976Z,36.53
2019-01-24T13:59:22.878Z,34.80
2019-01-24T14:01:52.340Z,37.10
2019-01-24T14:04:30.138Z,34.20
2019-01-24T14:06:59.603Z,31.40
2019-01-24T14:09:29.123Z,96.13
2019-01-24T14:11:58.603Z,40.77
2019-01-24T14:14:28.110Z,37.23
2019-01-24T14:16:57.641Z,68.50
2019-01-24T14:19:27.242Z,41.33
2019-01-24T14:21:56.730Z,50.27
2019-01-24T14:24:26.239Z,32.77
2019-01-24T14:26:55.766Z,36.60
2019-01-24T14:29:25.237Z,32.17
2019-01-24T14:31:54.745Z,32.30
2019-01-24T14:34:24.236Z,31.50
2019-01-24T14:36:53.837Z,30.07
2019-01-24T14:39:23.343Z,28.90
2019-01-24T14:41:52.893Z,29.27
2019-01-24T14:44:22.380Z,31.40
2019-01-24T14:46:51.886Z,30.50
2019-01-24T14:49:21.404Z,32.37
2019-01-24T14:51:50.897Z,33.03
2019-01-24T14:54:20.416Z,34.40
2019-01-24T14:56:49.897Z,32.77
2019-01-24T14:59:19.465Z,30.17
2019-01-24T15:01:49.058Z,30.10
2019-01-24T15:04:18.541Z,32.03
2019-01-24T15:06:48.048Z,29.57
2019-01-24T15:09:17.654Z,29.47
2019-01-24T15:11:47.222Z,31.40
2019-01-24T15:14:16.710Z,32.47
2019-01-24T15:16:46.224Z,32.60
2019-01-24T15:19:15.750Z,35.10
2019-01-24T15:21:45.297Z,35.83
2019-01-24T15:24:14.827Z,36.73
2019-01-24T15:26:44.328Z,35.37
2019-01-24T15:29:13.829Z,34.97
2019-01-24T15:31:43.349Z,34.37
2019-01-24T15:34:12.833Z,34.47
2019-01-24T15:36:42.394Z,33.70
2019-01-24T15:39:11.881Z,31.83
2019-01-24T15:41:41.401Z,33.07
2019-01-24T15:44:14.219Z,30.33
2019-01-24T15:46:43.689Z,33.33
2019-01-24T15:49:13.169Z,32.00
2019-01-24T15:51:42.691Z,31.13
2019-01-24T15:54:12.185Z,31.97
2019-01-24T15:56:41.714Z,34.77
2019-01-24T15:59:11.191Z,38.17
2019-01-24T16:01:40.675Z,38.17
2019-01-24T16:04:10.189Z,33.83
2019-01-24T16:06:39.709Z,35.20
2019-01-24T16:09:09.601Z,34.63
2019-01-24T16:11:39.101Z,36.30
2019-01-24T16:14:08.589Z,33.83
2019-01-24T16:16:38.097Z,35.40
2019-01-24T16:19:07.602Z,38.73
2019-01-24T16:21:37.105Z,32.47
2019-01-24T16:24:06.594Z,35.73
2019-01-24T16:26:37.313Z,36.70
2019-01-24T16:29:07.009Z,38.70
2019-01-24T16:31:36.518Z,40.53
2019-01-24T16:34:06.012Z,43.97
2019-01-24T16:36:35.550Z,37.80
2019-01-24T16:39:08.240Z,41.60
2019-01-24T16:41:37.757Z,36.47
2019-01-24T16:44:07.357Z,42.60
2019-01-24T16:46:36.898Z,42.07
2019-01-24T16:49:06.381Z,38.17
2019-01-24T16:51:35.902Z,36.23
2019-01-24T16:54:05.987Z,37.60
2019-01-24T16:56:35.496Z,38.10
2019-01-24T16:59:05.235Z,36.60
2019-01-24T17:01:34.772Z,34.53
2019-01-24T17:04:04.468Z,35.37
2019-01-24T17:06:33.988Z,36.63
2019-01-24T17:09:04.848Z,35.20
2019-01-24T17:11:34.356Z,36.83
2019-01-24T17:14:04.174Z,37.50
2019-01-24T17:16:33.729Z,37.23
2019-01-24T17:19:03.221Z,39.47
2019-01-24T17:21:32.744Z,36.43
2019-01-24T17:24:02.293Z,37.90
2019-01-24T17:26:31.812Z,38.07
2019-01-24T17:29:01.284Z,39.93
2019-01-24T17:31:30.824Z,40.17
2019-01-24T17:34:02.379Z,42.40
2019-01-24T17:36:31.892Z,48.67
2019-01-24T17:39:01.369Z,55.97
2019-01-24T17:41:30.876Z,42.83
2019-01-24T17:44:00.389Z,53.57
2019-01-24T17:46:29.965Z,58.90
2019-01-24T17:48:59.502Z,51.40
2019-01-24T17:51:28.982Z,50.10
2019-01-24T17:53:58.508Z,74.30
2019-01-24T17:56:28.029Z,47.63
2019-01-24T17:58:57.573Z,48.53
2019-01-24T18:01:27.078Z,48.70
2019-01-24T18:03:56.721Z,51.13
2019-01-24T18:06:26.261Z,49.50
2019-01-24T18:08:55.869Z,48.23
2019-01-24T18:11:25.366Z,51.57
2019-01-24T18:13:54.953Z,53.83
2019-01-24T18:16:24.537Z,61.00
2019-01-24T18:18:54.045Z,126.70
2019-01-24T18:21:23.621Z,102.87
2019-01-24T18:24:12.176Z,87.30
2019-01-24T18:26:41.724Z,53.90
2019-01-24T18:29:11.269Z,52.20
2019-01-24T18:31:59.901Z,49.30
2019-01-24T18:34:48.426Z,48.13
2019-01-24T18:37:37.003Z,47.97
2019-01-24T18:43:34.737Z,48.53
2019-01-24T18:46:04.472Z,47.50
2019-01-24T18:48:53.081Z,52.20
2019-01-24T18:51:41.621Z,51.07
2019-01-24T18:54:30.197Z,46.10
2019-01-24T18:56:59.695Z,45.20
2019-01-24T18:59:29.232Z,48.00
2019-01-24T19:01:58.740Z,44.90
2019-01-24T19:04:28.269Z,45.73
2019-01-24T19:06:57.754Z,46.67
2019-01-24T19:09:27.250Z,46.53
2019-01-24T19:11:56.772Z,45.57
2019-01-24T19:14:26.280Z,59.00
2019-01-24T19:16:55.757Z,54.33
2019-01-24T19:19:25.274Z,51.70
2019-01-24T19:21:54.777Z,60.60
2019-01-24T19:24:24.284Z,57.73
2019-01-24T19:26:53.788Z,47.97
2019-01-24T19:29:23.298Z,76.73
2019-01-24T19:31:52.769Z,51.80
2019-01-24T19:34:22.304Z,53.33
2019-01-24T19:36:51.801Z,54.47
2019-01-24T19:39:21.280Z,91.53
2019-01-24T19:41:50.783Z,48.63
2019-01-24T19:44:20.252Z,47.23
2019-01-24T19:46:49.768Z,47.33
2019-01-24T19:49:19.238Z,48.97
2019-01-24T19:51:48.763Z,51.87
2019-01-24T19:54:18.235Z,47.40
2019-01-24T19:56:47.757Z,48.90
2019-01-24T19:59:17.236Z,50.27
2019-01-24T20:01:46.713Z,50.63
2019-01-24T20:04:16.220Z,47.40
2019-01-24T20:06:45.729Z,76.87
2019-01-24T20:09:15.228Z,45.73
2019-01-24T20:11:44.738Z,52.63
2019-01-24T20:14:14.238Z,51.87
2019-01-24T20:16:43.732Z,49.47
2019-01-24T20:19:13.251Z,64.73
2019-01-24T20:21:42.797Z,55.30
2019-01-24T20:24:12.359Z,52.43
2019-01-24T20:26:41.860Z,58.30
2019-01-24T20:29:11.357Z,52.43
2019-01-24T20:31:40.869Z,51.27
2019-01-24T20:34:10.347Z,49.80
2019-01-24T20:36:39.855Z,49.20
2019-01-24T20:39:10.148Z,48.87
2019-01-24T20:41:39.740Z,48.10
2019-01-24T20:44:09.204Z,47.83
2019-01-24T20:46:38.688Z,49.50
2019-01-24T20:49:08.188Z,52.90
2019-01-24T20:51:37.657Z,51.63
2019-01-24T20:54:07.162Z,59.40
2019-01-24T20:56:36.657Z,55.93
2019-01-24T20:59:06.209Z,50.57
2019-01-24T21:01:35.678Z,52.90
2019-01-24T21:04:05.140Z,51.20
2019-01-24T21:06:35.562Z,52.07
2019-01-24T21:09:14.490Z,50.57
2019-01-24T21:11:39.206Z,51.63
2019-01-24T21:14:08.828Z,52.53
2019-01-24T21:16:38.333Z,50.57
2019-01-24T21:19:07.840Z,49.97
2019-01-24T21:21:37.388Z,52.07
2019-01-24T21:24:06.861Z,52.27
2019-01-24T21:26:36.354Z,48.03
2019-01-24T21:29:05.888Z,48.90
2019-01-24T21:31:35.390Z,51.27
2019-01-24T21:34:04.908Z,50.60
2019-01-24T21:36:34.385Z,49.43
2019-01-24T21:39:05.792Z,51.90
2019-01-24T21:41:35.326Z,51.63
2019-01-24T21:44:05.038Z,49.83
2019-01-24T21:46:34.508Z,53.97
2019-01-24T21:49:04.394Z,47.43
2019-01-24T21:51:33.940Z,51.10
2019-01-24T21:54:03.424Z,51.47
2019-01-24T21:56:32.933Z,51.77
2019-01-24T21:59:02.452Z,49.00
2019-01-24T22:01:31.961Z,50.93
2019-01-24T22:04:01.465Z,49.30
2019-01-24T22:06:31.032Z,49.50
2019-01-24T22:09:00.509Z,51.50
2019-01-24T22:11:30.004Z,50.00
2019-01-24T22:13:59.509Z,50.93
2019-01-24T22:16:29.008Z,52.63
2019-01-24T22:18:58.545Z,47.97
2019-01-24T22:21:28.016Z,51.30
2019-01-24T22:23:57.576Z,47.53
2019-01-24T22:26:27.055Z,50.40
2019-01-24T22:28:56.910Z,52.80
2019-01-24T22:31:26.404Z,46.97
2019-01-24T22:33:55.892Z,47.97
2019-01-24T22:36:25.422Z,42.33
2019-01-24T22:38:54.906Z,43.53
2019-01-24T22:41:24.416Z,44.03
2019-01-24T22:43:53.923Z,43.83
2019-01-24T22:46:23.412Z,43.30
2019-01-24T22:48:52.886Z,49.03
2019-01-24T22:51:22.471Z,44.77
2019-01-24T22:53:51.944Z,53.47
2019-01-24T22:56:21.420Z,44.03
2019-01-24T22:58:50.985Z,50.87
2019-01-24T23:01:42.476Z,44.23
2019-01-24T23:04:17.747Z,43.73
2019-01-24T23:06:47.414Z,46.23
2019-01-24T23:09:16.996Z,42.60
2019-01-24T23:11:46.498Z,41.43
2019-01-24T23:14:15.982Z,43.13
2019-01-24T23:16:45.492Z,46.60
2019-01-24T23:19:15.013Z,42.03
2019-01-24T23:21:44.517Z,41.73
2019-01-24T23:24:14.021Z,41.40
2019-01-24T23:26:43.497Z,43.67
2019-01-24T23:29:13.018Z,46.20
2019-01-24T23:31:42.504Z,41.17
2019-01-24T23:34:11.993Z,40.03
2019-01-24T23:36:41.468Z,40.70
2019-01-24T23:39:11.464Z,41.87
2019-01-24T23:41:40.944Z,44.33
2019-01-24T23:44:10.435Z,48.93
2019-01-24T23:46:39.929Z,46.90
2019-01-24T23:49:09.420Z,44.57
2019-01-24T23:51:38.920Z,42.73
2019-01-24T23:54:08.400Z,43.57
2019-01-24T23:56:37.909Z,43.10
2019-01-24T23:59:07.380Z,43.27
